This is the latest recevied weather packets stored in our database for station/object WA6GRA. If no packets are shown the sender has not sent any weather packets the latest 10 day(s).
| Time | Temp. | Humidity | Pressure | Rain* | Wind** | Luminosity | Snow |
|---|---|---|---|---|---|---|---|
| 1777697102 | 22.78° C | 58% | 1010.2 hPa | 0 mm | - | 0 W/m² | - |
| 1777696497 | 23.33° C | 57% | 1010.2 hPa | 0 mm | - | 0 W/m² | - |
| 1777695893 | 23.33° C | 59% | 1009.9 hPa | 0 mm | - | 0 W/m² | - |
| 1777695288 | 23.33° C | 58% | 1009.8 hPa | 0 mm | - | 0 W/m² | - |
| 1777694687 | 23.89° C | 57% | 1009.6 hPa | 0 mm | - | 0 W/m² | - |
| 1777694086 | 24.44° C | 57% | 1009.6 hPa | 0 mm | - | 0 W/m² | - |
| 1777693482 | 25° C | 54% | 1009.3 hPa | 0 mm | - | 0 W/m² | - |
| 1777692883 | 25° C | 53% | 1009.3 hPa | 0 mm | - | 0 W/m² | - |
| 1777692282 | 26.11° C | 47% | 1009.2 hPa | 0 mm | - | 0 W/m² | - |
| 1777691678 | 26.67° C | 46% | 1009.3 hPa | 0 mm | - | 0 W/m² | - |
| 1777691073 | 26.67° C | 45% | 1009.2 hPa | 0 mm | - | 0 W/m² | - |
| 1777690473 | 27.22° C | 46% | 1009.2 hPa | 0 mm | - | 1 W/m² | - |
| 1777689869 | 27.78° C | 45% | 1009.1 hPa | 0 mm | - | 4 W/m² | - |
| 1777689264 | 27.78° C | 45% | 1009.1 hPa | 0 mm | - | 11 W/m² | - |
| 1777688664 | 28.33° C | 45% | 1008.9 hPa | 0 mm | - | 20 W/m² | - |
| 1777688064 | 28.89° C | 42% | 1009 hPa | 0 mm | - | 31 W/m² | - |
| 1777687459 | 30° C | 40% | 1008.9 hPa | 0 mm | - | 46 W/m² | - |
| 1777686859 | 30° C | 40% | 1009.1 hPa | 0 mm | - | 58 W/m² | - |
| 1777686258 | 30° C | 39% | 1009 hPa | 0 mm | - | 70 W/m² | - |
| 1777685656 | 30° C | 40% | 1009 hPa | 0 mm | - | 96 W/m² | - |
| 1777685051 | 30° C | 39% | 1008.7 hPa | 0 mm | - | 104 W/m² | - |
| 1777684450 | 30.56° C | 39% | 1009 hPa | 0 mm | - | 129 W/m² | - |
| 1777683849 | 30° C | 39% | 1009.2 hPa | 0 mm | - | 167 W/m² | - |
| 1777683244 | 30° C | 38% | 1009.3 hPa | 0 mm | - | 171 W/m² | - |
| 1777682643 | 30.56° C | 37% | 1009.2 hPa | 0 mm | - | 199 W/m² | - |
* Rain latest hour (hover to see other rain measurements)
** Current wind speed in m/s (hover to see current wind gust speed)